Time;durP1;ratioP1;P1;durP2;ratioP2;P2;SDS_P1;SDS_P2;PMS_P1;PMS_P2;Temp;Humidity;BMP_temperature;BMP_pressure;BME280_temperature;BME280_humidity;BME280_pressure;Samples;Min_cycle;Max_cycle;Signal;HPM_P1;HPM_P2
2022/07/21 00:01:53;;;;;;;19.50;8.68;;;19.50;99.90;;;;;;5010408;28;20445;-70
2022/07/21 00:04:19;;;;;;;12.50;8.35;;;19.40;99.90;;;;;;5011455;28;20038;-70
2022/07/21 00:06:46;;;;;;;15.65;8.27;;;19.50;99.90;;;;;;5011255;28;20042;-70
2022/07/21 00:09:12;;;;;;;12.38;8.38;;;19.10;99.90;;;;;;5011673;28;20140;-70
2022/07/21 00:11:38;;;;;;;18.42;9.73;;;19.40;99.90;;;;;;5011511;28;20453;-70
2022/07/21 00:14:06;;;;;;;14.60;9.98;;;19.40;99.90;;;;;;5011281;28;20391;-70
2022/07/21 00:16:32;;;;;;;18.27;9.10;;;19.50;99.90;;;;;;5011140;28;20061;-70
2022/07/21 00:18:59;;;;;;;15.52;9.43;;;19.30;99.90;;;;;;5009885;28;20076;-70
2022/07/21 00:21:28;;;;;;;13.32;9.77;;;19.10;99.90;;;;;;5010799;28;20061;-71
2022/07/21 00:23:54;;;;;;;20.10;10.45;;;19.50;99.90;;;;;;5009776;28;20049;-69
2022/07/21 00:26:20;;;;;;;16.35;9.75;;;19.40;99.90;;;;;;5011018;28;20042;-69
2022/07/21 00:28:46;;;;;;;17.92;10.05;;;19.30;99.90;;;;;;5010882;28;20137;-71
2022/07/21 00:31:12;;;;;;;23.48;11.38;;;19.40;99.90;;;;;;5010929;28;20133;-71
2022/07/21 00:33:37;;;;;;;19.73;11.23;;;19.40;99.90;;;;;;5011031;28;20050;-70
2022/07/21 00:36:03;;;;;;;19.63;10.73;;;19.40;99.90;;;;;;5010624;28;20099;-70
2022/07/21 00:38:29;;;;;;;24.17;11.20;;;19.50;99.90;;;;;;5011001;28;20052;-71
2022/07/21 00:40:55;;;;;;;20.63;11.20;;;19.40;99.90;;;;;;5010844;28;20046;-71
2022/07/21 00:43:21;;;;;;;23.33;10.35;;;19.10;99.90;;;;;;5010861;28;20134;-70
2022/07/21 00:45:47;;;;;;;20.25;11.35;;;19.30;99.90;;;;;;5009474;28;20069;-71
2022/07/21 00:48:13;;;;;;;20.92;12.07;;;19.10;99.90;;;;;;5010677;28;20118;-71
2022/07/21 00:50:38;;;;;;;16.08;11.70;;;19.70;99.90;;;;;;5010536;28;20049;-70
2022/07/21 00:53:04;;;;;;;18.00;11.18;;;19.50;99.90;;;;;;5010699;28;20494;-70
2022/07/21 00:55:30;;;;;;;22.10;12.57;;;19.10;99.90;;;;;;5009527;28;20053;-71
2022/07/21 00:57:57;;;;;;;20.65;12.05;;;19.30;99.90;;;;;;5009363;28;20053;-71
2022/07/21 01:00:26;;;;;;;16.33;11.52;;;19.10;99.90;;;;;;5009585;28;20058;-70
2022/07/21 01:02:52;;;;;;;16.75;12.73;;;19.50;99.90;;;;;;5010397;28;20050;-71
2022/07/21 01:05:19;;;;;;;22.10;12.18;;;19.30;99.90;;;;;;5010340;28;20051;-72
2022/07/21 01:07:47;;;;;;;18.90;13.05;;;19.60;99.90;;;;;;5010255;28;20072;-71
2022/07/21 01:10:14;;;;;;;16.00;11.77;;;19.40;99.90;;;;;;5010407;28;20415;-70
2022/07/21 01:12:40;;;;;;;22.73;13.23;;;19.30;99.90;;;;;;5010251;28;20046;-70
2022/07/21 01:15:08;;;;;;;21.15;13.75;;;19.00;99.90;;;;;;5010135;28;20046;-70
2022/07/21 01:17:34;;;;;;;17.50;13.27;;;19.20;99.90;;;;;;5010219;28;20072;-70
2022/07/21 01:20:05;;;;;;;25.10;14.23;;;19.50;99.90;;;;;;5009995;28;20057;-71
2022/07/21 01:22:32;;;;;;;19.75;14.30;;;19.40;99.90;;;;;;5010396;28;20050;-71
2022/07/21 01:24:58;;;;;;;26.27;15.32;;;19.40;99.90;;;;;;5010009;28;20049;-73
2022/07/21 01:27:28;;;;;;;36.50;18.75;;;19.60;99.90;;;;;;4992779;28;20048;-71
2022/07/21 01:29:57;;;;;;;22.52;16.55;;;19.60;99.90;;;;;;5010021;28;20096;-78
2022/07/21 01:32:23;;;;;;;34.00;18.80;;;19.60;99.90;;;;;;5009784;28;20398;-77
2022/07/21 01:34:49;;;;;;;31.98;19.45;;;19.40;99.90;;;;;;5009692;28;20049;-80
2022/07/21 01:37:23;;;;;;;34.53;21.25;;;19.70;99.90;;;;;;5009337;28;20049;-81
2022/07/21 01:42:34;;;;;;;37.03;21.48;;;19.40;99.90;;;;;;5009929;28;20514;-76
2022/07/21 01:45:00;;;;;;;33.30;21.83;;;19.40;99.90;;;;;;5008346;28;20046;-75
2022/07/21 01:47:26;;;;;;;37.83;22.73;;;19.60;99.90;;;;;;5009862;28;20486;-76
2022/07/21 01:49:51;;;;;;;35.35;24.02;;;19.50;99.90;;;;;;5008728;28;20133;-79
2022/07/21 01:52:17;;;;;;;33.15;23.60;;;19.20;99.90;;;;;;5009866;28;20045;-77
2022/07/21 01:54:43;;;;;;;36.05;23.83;;;19.40;99.90;;;;;;5009625;28;20214;-76
2022/07/21 01:57:08;;;;;;;38.15;24.10;;;19.50;99.90;;;;;;5009870;28;20049;-76
2022/07/21 01:59:34;;;;;;;40.60;25.20;;;19.20;99.90;;;;;;5009685;28;20056;-78
2022/07/21 02:02:00;;;;;;;36.88;25.50;;;19.10;99.90;;;;;;5008866;28;20483;-79
2022/07/21 02:04:25;;;;;;;40.15;25.70;;;19.70;99.90;;;;;;5009576;28;20495;-80
2022/07/21 02:06:51;;;;;;;39.85;25.73;;;19.30;99.90;;;;;;5009511;28;20046;-79
2022/07/21 02:09:17;;;;;;;36.05;26.52;;;19.20;99.90;;;;;;5009553;28;20042;-75
2022/07/21 02:11:42;;;;;;;47.40;26.70;;;19.10;99.90;;;;;;5009339;28;20046;-74
2022/07/21 02:14:08;;;;;;;38.13;24.83;;;19.30;99.90;;;;;;5009310;28;20136;-76
2022/07/21 02:16:34;;;;;;;38.10;25.48;;;19.20;99.90;;;;;;5009306;28;20101;-77
2022/07/21 02:19:00;;;;;;;38.60;23.83;;;19.30;99.90;;;;;;5008165;28;20050;-74
2022/07/21 02:21:25;;;;;;;34.90;23.17;;;19.50;99.90;;;;;;5009226;28;20050;-76
2022/07/21 02:23:51;;;;;;;31.92;20.15;;;19.40;99.90;;;;;;5009281;28;20053;-76
2022/07/21 02:26:17;;;;;;;42.72;23.00;;;19.10;99.90;;;;;;5008046;28;20052;-80
2022/07/21 02:28:43;;;;;;;31.02;21.00;;;19.00;99.90;;;;;;5008108;28;20046;-78
2022/07/21 02:31:09;;;;;;;34.03;20.42;;;19.40;99.90;;;;;;5009441;28;20517;-77
2022/07/21 02:33:34;;;;;;;39.35;22.35;;;19.30;99.90;;;;;;5009427;28;20049;-78
2022/07/21 02:36:00;;;;;;;35.13;21.40;;;19.20;99.90;;;;;;5009169;28;20054;-76
2022/07/21 02:38:26;;;;;;;34.83;21.05;;;19.30;99.90;;;;;;5009033;28;20050;-74
2022/07/21 02:40:52;;;;;;;39.03;23.52;;;19.30;99.90;;;;;;5009085;28;20530;-71
2022/07/21 02:43:17;;;;;;;34.88;21.63;;;19.10;99.90;;;;;;5008836;28;20045;-69
2022/07/21 02:45:44;;;;;;;36.80;23.13;;;19.50;99.90;;;;;;5009017;28;20068;-68
2022/07/21 02:48:13;;;;;;;41.47;22.45;;;19.20;99.90;;;;;;5008856;28;20103;-69
2022/07/21 02:50:41;;;;;;;50.08;24.23;;;19.20;99.90;;;;;;5008952;28;20054;-71
2022/07/21 02:53:11;;;;;;;39.13;23.17;;;19.20;99.90;;;;;;5008909;28;20114;-74
2022/07/21 02:55:37;;;;;;;41.40;22.58;;;19.10;99.90;;;;;;5008848;28;20067;-76
2022/07/21 02:58:17;;;;;;;39.17;22.77;;;19.00;99.90;;;;;;5008708;28;20050;-75
2022/07/21 03:00:45;;;;;;;44.15;24.42;;;18.70;99.90;;;;;;5008813;28;20046;-73
2022/07/21 03:03:11;;;;;;;34.40;23.90;;;19.30;99.90;;;;;;5008771;28;20049;-73
2022/07/21 03:05:38;;;;;;;39.38;24.00;;;19.10;99.90;;;;;;5008744;28;20455;-74
2022/07/21 03:08:04;;;;;;;41.33;24.63;;;19.10;99.90;;;;;;5008711;28;20053;-74
2022/07/21 03:10:30;;;;;;;45.47;25.90;;;18.80;99.90;;;;;;5008594;28;20058;-75
2022/07/21 03:12:56;;;;;;;41.85;24.60;;;19.10;99.90;;;;;;5008729;28;20053;-76
2022/07/21 03:15:22;;;;;;;35.95;23.85;;;18.90;99.90;;;;;;5008721;28;20050;-80
2022/07/21 03:17:48;;;;;;;38.78;25.73;;;18.90;99.90;;;;;;5008634;28;20403;-81
2022/07/21 03:20:14;;;;;;;39.33;23.77;;;18.90;99.90;;;;;;5008737;28;20387;-80
2022/07/21 03:22:39;;;;;;;43.78;25.67;;;18.80;99.90;;;;;;5008559;28;20057;-76
2022/07/21 03:25:07;;;;;;;41.53;25.17;;;19.00;99.90;;;;;;5008269;28;20038;-75
2022/07/21 03:27:35;;;;;;;37.75;24.20;;;19.00;99.90;;;;;;5008373;28;20384;-74
2022/07/21 03:30:04;;;;;;;45.88;25.52;;;18.80;99.90;;;;;;5008536;28;20045;-77
2022/07/21 03:32:30;;;;;;;45.70;27.10;;;18.90;99.90;;;;;;5007407;28;20530;-74
2022/07/21 03:34:55;;;;;;;43.60;26.58;;;18.90;99.90;;;;;;5008260;28;20085;-72
2022/07/21 03:37:21;;;;;;;47.67;27.73;;;19.00;99.90;;;;;;5008329;28;20415;-74
2022/07/21 03:39:47;;;;;;;48.88;29.33;;;19.00;99.90;;;;;;5008204;28;20391;-75
2022/07/21 03:42:12;;;;;;;46.38;28.35;;;18.90;99.90;;;;;;5008410;28;20050;-74
2022/07/21 03:44:38;;;;;;;46.65;28.83;;;18.80;99.90;;;;;;5008426;28;20045;-71
2022/07/21 03:47:04;;;;;;;42.20;27.15;;;18.70;99.90;;;;;;5008182;28;20064;-74
2022/07/21 03:49:29;;;;;;;43.53;27.40;;;18.70;99.90;;;;;;5008477;28;20057;-75
2022/07/21 03:51:55;;;;;;;46.03;27.48;;;18.80;99.90;;;;;;5008124;28;20103;-72
2022/07/21 03:54:21;;;;;;;42.70;27.75;;;18.70;99.90;;;;;;5008025;28;20573;-72
2022/07/21 03:56:46;;;;;;;51.63;28.92;;;18.90;99.90;;;;;;5008090;28;20099;-76
2022/07/21 03:59:12;;;;;;;51.80;29.15;;;19.00;99.90;;;;;;5009293;28;20493;-76
2022/07/21 04:01:38;;;;;;;47.42;27.40;;;18.90;99.90;;;;;;5010073;28;20046;-73
2022/07/21 04:04:03;;;;;;;57.30;31.67;;;19.10;99.90;;;;;;5011336;28;20068;-76
2022/07/21 04:06:29;;;;;;;46.83;28.40;;;19.00;99.90;;;;;;5011397;28;20478;-76
2022/07/21 04:08:55;;;;;;;54.45;32.65;;;18.90;99.90;;;;;;5011115;28;20449;-75
2022/07/21 04:11:20;;;;;;;57.15;31.25;;;19.00;99.90;;;;;;5010457;28;20123;-74
2022/07/21 04:13:46;;;;;;;53.17;31.35;;;18.80;99.90;;;;;;5011245;28;20068;-74
2022/07/21 04:16:12;;;;;;;56.58;30.50;;;18.80;99.90;;;;;;5011197;28;20103;-75
2022/07/21 04:18:37;;;;;;;49.83;30.42;;;19.20;99.90;;;;;;5011133;28;20099;-73
2022/07/21 04:21:03;;;;;;;51.17;30.55;;;19.00;99.90;;;;;;5009922;28;20402;-74
2022/07/21 04:23:29;;;;;;;58.03;31.98;;;19.10;99.90;;;;;;5009974;28;20050;-74
2022/07/21 04:25:55;;;;;;;59.45;32.60;;;19.20;99.90;;;;;;5010172;28;20132;-75
2022/07/21 04:28:20;;;;;;;59.13;33.28;;;19.10;99.90;;;;;;5011150;28;20397;-72
2022/07/21 04:30:46;;;;;;;57.03;33.15;;;19.20;99.90;;;;;;5011062;28;20042;-77
2022/07/21 04:33:11;;;;;;;65.68;34.25;;;19.20;99.90;;;;;;5010924;28;20129;-74
2022/07/21 04:35:37;;;;;;;64.80;34.17;;;19.00;99.90;;;;;;5010763;28;20050;-72
2022/07/21 04:38:03;;;;;;;58.58;32.00;;;19.10;99.90;;;;;;5010794;28;20486;-72
2022/07/21 04:40:28;;;;;;;51.42;30.92;;;19.30;99.90;;;;;;5010697;28;20054;-73
2022/07/21 04:42:54;;;;;;;54.88;32.40;;;19.10;99.90;;;;;;5010695;28;20071;-72
2022/07/21 04:45:20;;;;;;;49.25;29.90;;;19.00;99.90;;;;;;5010915;28;20178;-70
2022/07/21 04:47:54;;;;;;;53.67;32.28;;;19.50;99.90;;;;;;5010491;28;20517;-73
2022/07/21 04:50:21;;;;;;;50.92;31.08;;;19.20;99.90;;;;;;5010816;28;20050;-72
2022/07/21 04:52:47;;;;;;;55.22;31.85;;;19.20;99.90;;;;;;5010571;28;20042;-72
2022/07/21 04:55:14;;;;;;;55.58;31.52;;;19.10;99.90;;;;;;5010720;28;20053;-73
2022/07/21 04:57:42;;;;;;;51.58;30.58;;;19.40;99.90;;;;;;5010581;28;20052;-73
2022/07/21 05:00:10;;;;;;;57.10;32.97;;;19.30;99.90;;;;;;5010656;28;20049;-72
2022/07/21 05:02:36;;;;;;;50.22;31.45;;;19.20;99.90;;;;;;5010415;28;20050;-73
2022/07/21 05:05:02;;;;;;;51.88;32.33;;;19.60;99.90;;;;;;5010319;28;20354;-71
2022/07/21 05:07:28;;;;;;;47.60;29.77;;;19.20;99.90;;;;;;5010708;28;20056;-73
2022/07/21 05:09:54;;;;;;;53.92;32.17;;;19.20;99.90;;;;;;5010568;28;20061;-73
2022/07/21 05:12:19;;;;;;;50.35;30.10;;;19.30;99.90;;;;;;5010444;28;20081;-71
2022/07/21 05:14:45;;;;;;;52.15;30.80;;;19.00;99.90;;;;;;5010352;28;20061;-72
2022/07/21 05:17:11;;;;;;;53.55;32.30;;;19.50;99.90;;;;;;5010205;28;20050;-72
2022/07/21 05:19:36;;;;;;;55.83;31.15;;;19.30;99.90;;;;;;5010157;28;20046;-72
2022/07/21 05:22:02;;;;;;;53.25;31.02;;;19.40;99.90;;;;;;5010113;28;20054;-72
2022/07/21 05:24:27;;;;;;;52.63;31.92;;;19.10;99.90;;;;;;5010324;28;20398;-73
2022/07/21 05:26:53;;;;;;;55.50;32.50;;;19.20;99.90;;;;;;5010206;28;20060;-74
2022/07/21 05:29:19;;;;;;;53.25;31.83;;;19.30;99.90;;;;;;5010224;28;20048;-72
2022/07/21 05:31:44;;;;;;;57.53;33.35;;;19.30;99.90;;;;;;5010087;28;20453;-72
2022/07/21 05:34:10;;;;;;;51.03;32.97;;;19.30;99.90;;;;;;5010083;28;20677;-72
2022/07/21 05:36:36;;;;;;;55.08;34.10;;;19.50;99.90;;;;;;5009953;28;20046;-71
2022/07/21 05:39:02;;;;;;;55.22;33.85;;;19.50;99.90;;;;;;5010176;28;20132;-71
2022/07/21 05:41:28;;;;;;;52.65;33.40;;;19.60;99.90;;;;;;5009857;28;20045;-71
2022/07/21 05:43:53;;;;;;;51.97;32.67;;;19.50;99.90;;;;;;5009930;28;20041;-72
2022/07/21 05:46:19;;;;;;;49.60;31.95;;;19.80;99.90;;;;;;5009758;28;20056;-72
2022/07/21 05:48:45;;;;;;;45.38;30.52;;;19.70;99.90;;;;;;5009668;28;20064;-73
2022/07/21 05:51:10;;;;;;;48.55;30.50;;;19.70;99.90;;;;;;5009709;28;20128;-73
2022/07/21 05:53:36;;;;;;;40.08;28.80;;;19.80;99.90;;;;;;5009878;28;20054;-72
2022/07/21 05:56:02;;;;;;;40.45;28.77;;;19.70;99.90;;;;;;5008511;28;20061;-72
2022/07/21 05:58:27;;;;;;;41.15;28.67;;;19.60;99.90;;;;;;5009716;28;20042;-71
2022/07/21 06:01:09;;;;;;;36.40;25.55;;;19.30;99.90;;;;;;5009678;28;20463;-71
2022/07/21 06:03:36;;;;;;;35.65;25.63;;;19.60;99.90;;;;;;5009569;28;20054;-71
2022/07/21 06:06:02;;;;;;;36.17;25.15;;;19.80;99.90;;;;;;5009669;28;20397;-71
2022/07/21 06:08:28;;;;;;;40.03;26.17;;;20.00;99.90;;;;;;5008525;28;20134;-72
2022/07/21 06:10:54;;;;;;;33.92;25.45;;;19.50;99.90;;;;;;5009539;28;20042;-73
2022/07/21 06:13:20;;;;;;;32.10;24.95;;;19.70;99.90;;;;;;5008517;28;20127;-73
2022/07/21 06:15:45;;;;;;;34.28;25.85;;;19.60;99.90;;;;;;5009275;28;20124;-74
2022/07/21 06:18:11;;;;;;;33.10;25.65;;;19.70;99.90;;;;;;5009510;28;20056;-73
2022/07/21 06:20:37;;;;;;;31.02;25.23;;;19.60;99.90;;;;;;5008214;28;20372;-72
2022/07/21 06:23:02;;;;;;;31.52;23.80;;;19.70;99.90;;;;;;5008604;28;20093;-74
2022/07/21 06:25:28;;;;;;;30.30;23.55;;;19.70;99.90;;;;;;5009435;28;20114;-74
2022/07/21 06:27:54;;;;;;;28.30;22.40;;;19.50;99.90;;;;;;5009237;28;20414;-72
2022/07/21 06:30:20;;;;;;;31.73;22.98;;;19.80;99.90;;;;;;5009115;28;20054;-73
2022/07/21 06:32:45;;;;;;;32.80;24.33;;;19.60;99.90;;;;;;5009077;28;20049;-74
2022/07/21 06:35:11;;;;;;;36.40;25.85;;;19.90;99.90;;;;;;5009312;28;20046;-74
2022/07/21 06:37:37;;;;;;;37.58;26.90;;;19.90;99.90;;;;;;5009100;28;20050;-73
2022/07/21 06:40:04;;;;;;;38.58;26.77;;;20.00;99.90;;;;;;5008186;28;20050;-73
2022/07/21 06:42:29;;;;;;;35.15;26.77;;;20.00;99.90;;;;;;5008873;28;20053;-73
2022/07/21 06:44:55;;;;;;;37.33;26.55;;;19.90;99.90;;;;;;5007479;28;20038;-74
2022/07/21 06:47:21;;;;;;;43.80;28.60;;;20.00;99.90;;;;;;5009106;28;20058;-74
2022/07/21 06:49:47;;;;;;;34.75;26.38;;;19.90;99.90;;;;;;5008791;28;20064;-73
2022/07/21 06:52:13;;;;;;;39.40;27.60;;;19.80;99.90;;;;;;5009071;28;20054;-74
2022/07/21 06:54:39;;;;;;;36.53;28.23;;;20.00;99.90;;;;;;5007856;28;20041;-72
2022/07/21 06:57:05;;;;;;;37.72;27.92;;;19.70;99.90;;;;;;5008883;28;20479;-73
2022/07/21 06:59:31;;;;;;;36.40;27.35;;;19.90;99.90;;;;;;5008798;28;20050;-73
2022/07/21 07:01:58;;;;;;;36.75;27.67;;;20.10;99.90;;;;;;5008588;28;20046;-72
2022/07/21 07:04:24;;;;;;;37.28;27.75;;;19.90;99.90;;;;;;5008671;28;20081;-73
2022/07/21 07:06:52;;;;;;;37.33;27.73;;;19.80;99.90;;;;;;5008754;28;20135;-74
2022/07/21 07:09:18;;;;;;;35.17;27.65;;;19.90;99.90;;;;;;5029336;28;20044;-74
2022/07/21 07:11:46;;;;;;;40.88;28.38;;;19.90;99.90;;;;;;5035074;28;20051;-76
2022/07/21 07:14:13;;;;;;;37.58;27.77;;;19.80;99.90;;;;;;5042404;28;20144;-75
2022/07/21 07:16:39;;;;;;;38.78;28.27;;;19.80;99.90;;;;;;5007109;28;20046;-75
2022/07/21 07:19:05;;;;;;;40.70;27.42;;;19.40;99.90;;;;;;5024518;28;20150;-75
2022/07/21 07:21:30;;;;;;;30.98;24.42;;;19.90;99.90;;;;;;5030993;28;20054;-74
2022/07/21 07:23:56;;;;;;;23.45;19.10;;;19.40;99.90;;;;;;5039882;28;20089;-75
2022/07/21 07:26:22;;;;;;;22.73;17.98;;;19.70;99.90;;;;;;5025057;28;20442;-73
2022/07/21 07:28:47;;;;;;;20.48;16.38;;;19.50;99.90;;;;;;5046500;28;20413;-74
2022/07/21 07:31:13;;;;;;;19.52;16.17;;;19.50;99.90;;;;;;5011930;28;20133;-80
2022/07/21 07:33:39;;;;;;;26.75;18.08;;;19.30;99.90;;;;;;4988380;28;20046;-76
2022/07/21 07:36:05;;;;;;;26.70;19.48;;;19.50;99.90;;;;;;4991956;28;20038;-73
2022/07/21 07:38:30;;;;;;;24.38;18.25;;;19.50;99.90;;;;;;4992135;28;20047;-74
2022/07/21 07:40:56;;;;;;;26.02;19.83;;;19.40;99.90;;;;;;4992164;28;20553;-75
2022/07/21 07:43:21;;;;;;;25.10;18.48;;;19.60;99.90;;;;;;4987758;28;20391;-79
2022/07/21 07:45:47;;;;;;;24.77;19.15;;;19.60;99.90;;;;;;4990779;28;20121;-73
2022/07/21 07:48:13;;;;;;;26.77;21.15;;;19.70;99.90;;;;;;4991881;28;20058;-84
2022/07/21 07:50:39;;;;;;;30.83;23.75;;;19.80;99.90;;;;;;4991673;28;20091;-74
2022/07/21 07:53:04;;;;;;;32.95;25.90;;;20.00;99.90;;;;;;4991510;28;20110;-80
2022/07/21 07:55:30;;;;;;;36.95;26.08;;;20.30;99.90;;;;;;4991561;28;20099;-77
2022/07/21 07:57:56;;;;;;;36.38;27.75;;;20.20;99.90;;;;;;4991339;28;20069;-75
2022/07/21 08:00:21;;;;;;;37.97;29.02;;;20.60;99.90;;;;;;4990776;28;20104;-73
2022/07/21 08:02:47;;;;;;;47.42;30.85;;;20.50;99.90;;;;;;4991682;28;20145;-73
2022/07/21 08:05:13;;;;;;;40.20;29.67;;;20.30;99.90;;;;;;4991448;28;20057;-74
2022/07/21 08:07:39;;;;;;;38.55;29.63;;;20.10;99.90;;;;;;4988852;28;20096;-75
2022/07/21 08:10:11;;;;;;;38.80;30.02;;;20.00;99.90;;;;;;4988539;28;20411;-80
2022/07/21 08:12:38;;;;;;;40.97;30.70;;;20.30;99.90;;;;;;4991239;28;20046;-85
2022/07/21 08:15:04;;;;;;;42.67;30.05;;;20.10;99.90;;;;;;4989896;28;20046;-75
2022/07/21 08:17:30;;;;;;;50.47;32.45;;;19.80;99.90;;;;;;4990753;28;20176;-73
2022/07/21 08:19:56;;;;;;;39.95;31.38;;;20.10;99.90;;;;;;4990736;28;20510;-74
2022/07/21 08:22:22;;;;;;;45.53;31.10;;;19.90;99.90;;;;;;4990483;28;20050;-70
2022/07/21 08:24:47;;;;;;;46.25;32.88;;;19.90;99.90;;;;;;4990842;28;20050;-74
2022/07/21 08:27:13;;;;;;;45.28;32.88;;;19.70;99.90;;;;;;4990858;28;20133;-70
2022/07/21 08:29:39;;;;;;;51.10;34.83;;;19.90;99.90;;;;;;4989641;28;20050;-69
2022/07/21 08:32:05;;;;;;;53.90;36.17;;;19.80;99.90;;;;;;4990756;28;20045;-67
2022/07/21 08:34:30;;;;;;;53.80;36.42;;;19.50;99.90;;;;;;4989466;28;20050;-70
2022/07/21 08:36:57;;;;;;;57.38;37.42;;;19.60;99.90;;;;;;4990685;28;20042;-69
2022/07/21 08:39:23;;;;;;;56.83;36.25;;;19.80;99.90;;;;;;4990260;28;20107;-68
2022/07/21 08:41:50;;;;;;;54.90;36.50;;;19.70;99.90;;;;;;4990489;28;20046;-68
2022/07/21 08:44:16;;;;;;;51.28;35.70;;;19.60;99.90;;;;;;4990099;28;20054;-67
2022/07/21 08:46:42;;;;;;;58.70;36.97;;;19.50;99.90;;;;;;4990184;28;20397;-68
2022/07/21 08:49:10;;;;;;;57.63;38.55;;;19.40;99.90;;;;;;4990675;28;20046;-71
2022/07/21 08:51:36;;;;;;;60.13;38.35;;;20.10;99.90;;;;;;4990555;28;20162;-69
2022/07/21 08:54:03;;;;;;;52.35;37.10;;;20.00;99.90;;;;;;4990161;28;20054;-69
2022/07/21 08:56:29;;;;;;;49.53;37.35;;;20.00;99.90;;;;;;4990081;28;20048;-73
2022/07/21 08:58:55;;;;;;;57.28;38.92;;;19.80;99.90;;;;;;4990501;28;20046;-75
2022/07/21 09:01:23;;;;;;;51.90;37.55;;;19.80;99.90;;;;;;4990245;28;20050;-72
2022/07/21 09:03:51;;;;;;;51.00;37.17;;;20.30;99.90;;;;;;4990237;28;20050;-73
2022/07/21 09:06:17;;;;;;;57.28;38.88;;;20.40;99.90;;;;;;4986582;28;20043;-73
2022/07/21 09:08:48;;;;;;;46.90;37.72;;;20.10;99.90;;;;;;5033974;28;20193;-74
2022/07/21 09:11:24;;;;;;;52.25;37.22;;;20.20;99.90;;;;;;5042456;28;20055;-74
2022/07/21 09:14:06;;;;;;;52.70;37.00;;;20.30;99.90;;;;;;5029379;28;20052;-75
2022/07/21 09:16:33;;;;;;;51.05;37.53;;;20.60;99.90;;;;;;5045962;28;20071;-75
2022/07/21 09:18:59;;;;;;;59.40;39.67;;;20.00;99.90;;;;;;5033108;28;20060;-75
2022/07/21 09:21:25;;;;;;;52.10;38.55;;;20.60;99.90;;;;;;5040156;28;20129;-77
2022/07/21 09:23:51;;;;;;;54.38;38.33;;;20.30;99.90;;;;;;5031807;28;20044;-77
2022/07/21 09:26:16;;;;;;;49.90;35.92;;;20.10;99.90;;;;;;5032030;28;20154;-77
2022/07/21 09:28:42;;;;;;;44.05;34.45;;;20.50;99.90;;;;;;5047045;28;20048;-77
2022/07/21 09:31:11;;;;;;;46.47;34.55;;;20.40;99.90;;;;;;5030272;28;20515;-77
2022/07/21 09:33:46;;;;;;;49.55;35.72;;;20.50;99.90;;;;;;5041059;28;20133;-78
2022/07/21 09:36:13;;;;;;;49.40;36.13;;;20.60;99.90;;;;;;5025618;28;20115;-79
2022/07/21 09:38:47;;;;;;;58.50;38.72;;;20.10;99.90;;;;;;5043766;28;20524;-80
2022/07/21 09:41:16;;;;;;;60.10;41.20;;;20.70;99.90;;;;;;5030085;28;20051;-82
2022/07/21 09:43:45;;;;;;;57.50;41.45;;;20.60;99.90;;;;;;5030388;28;20497;-82
2022/07/21 09:46:17;;;;;;;55.30;40.42;;;20.50;99.90;;;;;;5015064;28;20065;-83
2022/07/21 09:48:48;;;;;;;56.20;41.00;;;20.70;99.90;;;;;;5008255;28;20052;-82
2022/07/21 12:12:35;;;;;;;10.40;7.90;;;19.30;99.90;;;;;;5129821;27;20451;-78
2022/07/21 12:15:14;;;;;;;12.10;7.53;;;20.60;99.90;;;;;;5130077;27;20047;-79
2022/07/21 12:17:46;;;;;;;13.32;7.32;;;20.50;99.90;;;;;;5128779;28;20125;-81
2022/07/21 12:20:13;;;;;;;10.82;6.88;;;20.60;99.90;;;;;;5128494;28;20054;-84
2022/07/21 12:22:46;;;;;;;8.70;6.32;;;20.30;99.90;;;;;;5094970;28;20500;-75
2022/07/21 12:25:13;;;;;;;8.88;5.82;;;20.60;99.90;;;;;;5096837;28;20047;-68
2022/07/21 12:27:41;;;;;;;8.43;6.53;;;20.80;99.90;;;;;;5107726;28;20563;-81
2022/07/21 12:30:09;;;;;;;9.90;6.10;;;20.60;99.90;;;;;;5104366;28;20064;-81
2022/07/21 12:33:09;;;;;;;6.93;5.40;;;21.00;99.90;;;;;;5088961;28;20048;-74
2022/07/21 12:35:39;;;;;;;7.70;5.55;;;21.30;99.90;;;;;;5085843;28;20152;-71
2022/07/21 12:38:13;;;;;;;5.85;4.90;;;21.10;99.90;;;;;;5088013;28;20044;-86
2022/07/21 12:40:46;;;;;;;5.32;4.82;;;21.60;99.90;;;;;;5087857;28;20123;-82
2022/07/21 12:43:17;;;;;;;8.35;5.03;;;21.60;99.90;;;;;;5087676;28;20117;-78
2022/07/21 12:46:01;;;;;;;6.80;5.20;;;22.00;99.90;;;;;;5088012;28;20057;-83
2022/07/21 12:48:30;;;;;;;7.68;5.32;;;22.00;99.90;;;;;;5087686;28;20045;-78
2022/07/21 12:51:02;;;;;;;7.10;4.82;;;22.50;99.90;;;;;;5087542;28;20041;-75
2022/07/21 12:53:29;;;;;;;6.43;4.80;;;22.10;99.90;;;;;;5087524;28;20106;-77
2022/07/21 12:55:55;;;;;;;7.20;4.78;;;22.50;99.90;;;;;;5087762;28;20048;-72
2022/07/21 12:58:21;;;;;;;6.03;4.60;;;22.40;99.90;;;;;;5087704;28;20051;-81
2022/07/21 13:00:47;;;;;;;6.50;4.65;;;22.30;99.90;;;;;;5090050;28;20144;-68
2022/07/21 13:03:12;;;;;;;6.35;4.55;;;22.80;99.90;;;;;;5087700;28;20044;-72
2022/07/21 13:05:38;;;;;;;6.03;4.45;;;22.80;99.90;;;;;;5096603;28;20044;-77
2022/07/21 13:08:04;;;;;;;7.50;4.78;;;22.70;99.90;;;;;;5107014;28;20047;-75
2022/07/21 13:10:30;;;;;;;6.13;4.50;;;22.60;99.90;;;;;;5107832;28;20427;-80
2022/07/21 13:12:55;;;;;;;7.00;4.30;;;22.60;99.90;;;;;;5095464;28;20059;-75
2022/07/21 13:15:21;;;;;;;5.85;4.35;;;22.70;99.90;;;;;;5094106;28;20074;-68
2022/07/21 13:17:47;;;;;;;5.45;4.40;;;22.60;99.90;;;;;;5093986;28;20080;-75
2022/07/21 13:20:13;;;;;;;8.68;4.50;;;22.80;99.90;;;;;;5094120;28;20044;-70
2022/07/21 13:22:40;;;;;;;6.13;4.88;;;22.00;99.90;;;;;;5093610;28;20051;-71
2022/07/21 13:25:06;;;;;;;8.65;4.65;;;20.10;99.90;;;;;;5094162;28;20566;-72
2022/07/21 13:27:33;;;;;;;9.23;4.72;;;21.80;99.90;;;;;;5090344;28;20075;-76
2022/07/21 13:29:59;;;;;;;5.47;4.57;;;21.90;99.90;;;;;;5094188;28;20051;-77
2022/07/21 13:32:25;;;;;;;9.75;4.95;;;22.20;99.90;;;;;;5093189;28;20090;-77
2022/07/21 13:34:51;;;;;;;5.85;4.60;;;22.50;99.90;;;;;;5094080;28;20084;-76
2022/07/21 13:37:17;;;;;;;10.63;5.60;;;22.30;99.90;;;;;;5094157;28;20044;-75
2022/07/21 13:39:42;;;;;;;5.20;4.28;;;22.50;99.90;;;;;;5094039;28;20489;-74
2022/07/21 13:42:08;;;;;;;7.07;4.68;;;22.60;99.90;;;;;;5093072;28;20130;-74
2022/07/21 13:44:34;;;;;;;7.03;5.15;;;22.60;99.90;;;;;;5094203;28;20044;-74
2022/07/21 13:47:00;;;;;;;8.23;5.13;;;22.50;99.90;;;;;;5094134;28;20091;-74
2022/07/21 13:49:26;;;;;;;7.70;5.55;;;22.60;99.90;;;;;;5094009;28;20079;-74
2022/07/21 13:51:51;;;;;;;7.65;5.30;;;22.90;99.90;;;;;;5093910;28;20568;-74
2022/07/21 13:54:17;;;;;;;6.32;4.80;;;22.80;99.90;;;;;;5093775;28;20129;-73
2022/07/21 13:56:43;;;;;;;8.40;5.18;;;22.70;99.90;;;;;;5094062;28;20050;-73
2022/07/21 13:59:09;;;;;;;9.05;5.15;;;23.10;99.90;;;;;;5092438;28;20048;-73
2022/07/21 14:01:35;;;;;;;6.05;4.60;;;22.90;99.90;;;;;;5093757;28;20105;-73
2022/07/21 14:04:00;;;;;;;5.88;4.22;;;22.80;99.90;;;;;;5093546;28;20048;-73
2022/07/21 14:06:26;;;;;;;6.38;4.47;;;22.60;99.90;;;;;;5088353;28;20032;-71
2022/07/21 14:08:52;;;;;;;7.03;4.72;;;22.50;99.90;;;;;;5093088;28;20054;-68
2022/07/21 14:11:18;;;;;;;6.13;4.93;;;22.40;99.90;;;;;;5092241;28;20562;-71
2022/07/21 14:13:44;;;;;;;6.43;4.00;;;22.50;99.90;;;;;;5089755;28;20109;-70
2022/07/21 14:16:10;;;;;;;6.53;4.60;;;22.30;99.90;;;;;;5090399;28;20051;-73
2022/07/21 14:18:36;;;;;;;9.07;5.07;;;21.80;99.90;;;;;;5092550;28;20044;-72
2022/07/21 14:21:02;;;;;;;7.53;4.53;;;22.10;99.90;;;;;;5093196;28;20044;-72
2022/07/21 14:23:28;;;;;;;7.57;4.53;;;21.80;99.90;;;;;;5092625;28;20100;-71
2022/07/21 14:25:53;;;;;;;7.38;4.70;;;21.80;99.90;;;;;;5075584;28;20067;-72
2022/07/21 14:28:20;;;;;;;5.45;4.30;;;21.50;99.90;;;;;;5071507;28;20048;-71
2022/07/21 14:30:46;;;;;;;5.95;4.13;;;21.70;99.90;;;;;;5071498;28;20052;-72
2022/07/21 14:33:11;;;;;;;6.72;4.15;;;21.20;99.90;;;;;;5073551;28;20048;-72
2022/07/21 14:35:37;;;;;;;6.30;4.82;;;21.30;99.90;;;;;;5071229;28;20056;-71
2022/07/21 14:38:03;;;;;;;7.68;4.60;;;21.10;99.90;;;;;;5070989;28;20048;-72
2022/07/21 14:40:29;;;;;;;5.13;4.38;;;21.00;99.90;;;;;;5070806;28;20041;-72
2022/07/21 14:42:55;;;;;;;7.72;4.70;;;20.80;99.90;;;;;;5070433;28;20883;-72
2022/07/21 14:45:22;;;;;;;6.55;4.78;;;21.10;99.90;;;;;;5070132;28;20044;-71
2022/07/21 14:47:52;;;;;;;6.63;5.30;;;21.10;99.90;;;;;;5065964;28;20052;-70
2022/07/21 14:50:18;;;;;;;9.55;5.47;;;20.80;99.90;;;;;;5069861;28;20499;-71
2022/07/21 14:52:44;;;;;;;8.18;5.57;;;20.80;99.90;;;;;;5072682;28;20059;-71